createdAt,value
2022-10-06T03:55:39.005Z,17.62
2022-10-06T03:58:06.904Z,9.58
2022-10-06T04:00:35.131Z,5.60
2022-10-06T04:03:02.615Z,5.50
2022-10-06T04:05:30.440Z,6.03
2022-10-06T04:07:58.089Z,6.15
2022-10-06T04:10:26.277Z,3.65
2022-10-06T04:12:53.676Z,3.20
2022-10-06T04:15:21.937Z,2.83
2022-10-06T04:17:49.649Z,3.17
2022-10-06T04:20:17.385Z,3.35
2022-10-06T04:22:45.136Z,3.70
2022-10-06T04:25:14.127Z,3.67
2022-10-06T04:27:41.647Z,3.50
2022-10-06T04:30:12.150Z,3.52
2022-10-06T04:32:40.146Z,3.45
2022-10-06T04:35:08.475Z,4.10
2022-10-06T04:37:36.139Z,4.20
2022-10-06T04:40:05.115Z,4.20
2022-10-06T04:42:35.237Z,3.85
2022-10-06T04:45:06.402Z,4.00
2022-10-06T04:47:34.111Z,4.33
2022-10-06T04:50:01.981Z,4.58
2022-10-06T04:52:30.568Z,5.03
2022-10-06T04:54:58.265Z,4.70
2022-10-06T04:57:25.661Z,4.75
2022-10-06T05:00:14.921Z,4.40
2022-10-06T05:02:40.608Z,4.50
2022-10-06T05:05:08.713Z,4.78
2022-10-06T05:07:36.383Z,5.70
2022-10-06T05:10:04.638Z,6.37
2022-10-06T05:12:32.434Z,6.53
2022-10-06T05:15:00.087Z,5.85
2022-10-06T05:17:28.508Z,4.90
2022-10-06T05:19:56.352Z,5.60
2022-10-06T05:22:23.907Z,4.70
2022-10-06T05:24:53.317Z,4.62
2022-10-06T05:27:20.836Z,4.62
2022-10-06T05:29:48.554Z,3.77
2022-10-06T05:32:16.211Z,3.55
2022-10-06T05:34:43.977Z,3.70
2022-10-06T05:37:11.764Z,3.50
2022-10-06T05:39:39.679Z,9.10
2022-10-06T05:42:07.474Z,7.97
2022-10-06T05:44:35.169Z,13.88
2022-10-06T05:47:04.523Z,11.57
2022-10-06T05:49:32.258Z,10.65
2022-10-06T05:52:01.723Z,10.45
2022-10-06T05:54:31.154Z,9.88
2022-10-06T05:56:58.442Z,10.35
2022-10-06T05:59:26.617Z,9.88
2022-10-06T06:01:55.864Z,9.30
2022-10-06T06:04:34.249Z,10.80
2022-10-06T06:07:01.942Z,13.40
2022-10-06T06:09:29.717Z,14.28
2022-10-06T06:12:01.623Z,15.23
2022-10-06T06:15:06.135Z,10.18
2022-10-06T06:17:35.496Z,7.25
2022-10-06T06:20:06.665Z,7.05
2022-10-06T06:22:35.343Z,5.80
2022-10-06T06:25:02.920Z,5.25
2022-10-06T06:27:30.481Z,5.33
2022-10-06T06:29:58.077Z,5.33
2022-10-06T06:32:27.359Z,5.22
2022-10-06T06:34:54.967Z,4.95
2022-10-06T06:37:22.713Z,4.80
2022-10-06T06:39:50.220Z,4.60
2022-10-06T06:42:18.400Z,5.05
2022-10-06T06:44:48.691Z,4.97
2022-10-06T06:47:27.196Z,5.17
2022-10-06T06:49:58.103Z,5.47
2022-10-06T06:52:27.428Z,5.67
2022-10-06T06:54:56.641Z,5.45
2022-10-06T06:57:24.345Z,5.47
2022-10-06T06:59:55.213Z,5.62
2022-10-06T07:02:25.288Z,5.37
2022-10-06T07:04:52.976Z,5.45
2022-10-06T07:07:21.299Z,5.78
2022-10-06T07:09:48.780Z,6.65
2022-10-06T07:12:17.789Z,6.37
2022-10-06T07:15:05.562Z,7.83
2022-10-06T07:17:53.929Z,8.73
2022-10-06T07:20:41.128Z,8.20
2022-10-06T07:23:32.578Z,8.78
2022-10-06T07:26:00.257Z,9.00
2022-10-06T07:28:30.023Z,7.58
2022-10-06T07:31:00.156Z,7.60
2022-10-06T07:33:30.901Z,7.67
2022-10-06T07:35:58.418Z,6.92
2022-10-06T07:38:27.117Z,6.50
2022-10-06T07:43:29.745Z,6.33
2022-10-06T07:45:57.393Z,6.42
2022-10-06T07:48:27.052Z,6.97
2022-10-06T07:50:56.300Z,7.95
2022-10-06T07:53:27.862Z,7.92
2022-10-06T07:56:06.730Z,7.30
2022-10-06T07:58:39.681Z,5.45
2022-10-06T08:01:11.437Z,6.10
2022-10-06T08:03:41.628Z,6.33
2022-10-06T08:06:14.070Z,6.35
2022-10-06T08:08:43.659Z,5.92
2022-10-06T08:11:12.864Z,5.87
2022-10-06T08:13:44.772Z,4.95
2022-10-06T08:16:17.300Z,3.22
2022-10-06T08:18:54.301Z,3.60
2022-10-06T08:21:33.469Z,4.33
2022-10-06T08:24:01.521Z,4.40
2022-10-06T08:26:30.564Z,3.72
2022-10-06T08:29:00.061Z,3.80
2022-10-06T08:31:27.955Z,4.47
2022-10-06T08:33:57.353Z,4.08
2022-10-06T08:36:31.289Z,4.00
2022-10-06T08:38:57.728Z,3.22
2022-10-06T08:41:43.809Z,3.08
2022-10-06T08:44:22.702Z,3.40
2022-10-06T08:47:13.527Z,2.35
2022-10-06T08:49:45.547Z,2.60
2022-10-06T08:52:48.419Z,2.10
2022-10-06T08:55:48.785Z,2.47
2022-10-06T08:58:39.887Z,2.72
2022-10-06T09:01:19.216Z,2.70
2022-10-06T09:03:48.762Z,2.00
2022-10-06T09:07:02.119Z,1.92
2022-10-06T09:10:06.497Z,2.67
2022-10-06T09:12:54.582Z,2.37
2022-10-06T09:15:41.884Z,2.72
2022-10-06T09:18:56.143Z,2.40
2022-10-06T09:21:15.562Z,3.00
2022-10-06T09:23:55.546Z,2.60
2022-10-06T09:26:32.538Z,2.80
2022-10-06T09:29:00.245Z,3.15
2022-10-06T09:31:46.638Z,2.47
2022-10-06T09:34:46.631Z,2.60
2022-10-06T09:37:14.997Z,2.27
2022-10-06T09:39:51.891Z,2.60
2022-10-06T09:42:26.523Z,2.75
2022-10-06T09:45:08.712Z,2.77
2022-10-06T09:47:44.400Z,2.20
2022-10-06T09:50:25.622Z,2.58
2022-10-06T09:53:07.985Z,2.20
2022-10-06T09:55:43.812Z,2.30
2022-10-06T09:58:19.378Z,2.15
2022-10-06T10:01:09.095Z,2.52
2022-10-06T10:04:18.798Z,1.92
2022-10-06T10:06:29.884Z,2.50
2022-10-06T10:09:28.601Z,2.50
2022-10-06T10:12:23.992Z,2.67
2022-10-06T10:14:57.926Z,2.55
2022-10-06T10:17:46.457Z,2.30
2022-10-06T10:20:37.048Z,2.20
2022-10-06T10:23:30.866Z,2.20
2022-10-06T10:26:21.543Z,2.60
2022-10-06T10:29:06.632Z,2.25
2022-10-06T10:32:17.462Z,2.70
2022-10-06T10:35:23.883Z,2.67
2022-10-06T10:37:57.882Z,3.50
2022-10-06T10:40:36.930Z,2.83
2022-10-06T10:43:44.632Z,3.02
2022-10-06T10:46:21.926Z,3.12
2022-10-06T10:49:22.614Z,3.20
2022-10-06T10:52:10.665Z,2.70
2022-10-06T10:55:02.727Z,2.35
2022-10-06T10:57:38.037Z,2.20
2022-10-06T11:00:26.687Z,2.27
2022-10-06T11:02:58.384Z,2.00
2022-10-06T11:05:46.530Z,2.30
2022-10-06T11:08:24.496Z,2.02
2022-10-06T11:10:59.235Z,1.92
2022-10-06T11:13:32.797Z,1.87
2022-10-06T11:16:20.347Z,1.70
2022-10-06T11:19:22.058Z,1.67
2022-10-06T11:22:03.229Z,1.80
2022-10-06T11:27:57.192Z,1.92
2022-10-06T11:30:26.146Z,1.75
2022-10-06T11:33:25.921Z,1.98
2022-10-06T11:35:53.901Z,1.92
2022-10-06T11:38:36.205Z,1.60
2022-10-06T11:41:23.783Z,1.30
2022-10-06T11:44:03.766Z,2.08
2022-10-06T11:46:53.652Z,2.15
2022-10-06T11:49:52.749Z,1.90
2022-10-06T11:52:25.566Z,1.98
2022-10-06T11:54:55.816Z,1.95
2022-10-06T11:57:31.144Z,1.72
2022-10-06T12:00:09.931Z,1.80
2022-10-06T12:02:40.245Z,1.75
2022-10-06T12:07:59.037Z,2.00
2022-10-06T12:10:33.660Z,2.00
2022-10-06T12:14:01.482Z,1.60
2022-10-06T12:18:57.012Z,1.70
2022-10-06T12:21:45.354Z,2.08
2022-10-06T12:24:36.496Z,1.50
2022-10-06T12:27:52.558Z,2.20
2022-10-06T12:30:35.152Z,1.50
2022-10-06T12:33:04.714Z,1.50
2022-10-06T12:35:39.675Z,1.67
2022-10-06T12:38:34.227Z,1.20
2022-10-06T12:41:01.885Z,1.20
2022-10-06T12:43:37.233Z,1.50
2022-10-06T12:46:16.211Z,1.27
2022-10-06T12:49:21.513Z,1.60
2022-10-06T12:51:53.427Z,1.47
2022-10-06T12:54:31.823Z,1.40
2022-10-06T12:57:15.628Z,1.60
2022-10-06T12:59:43.084Z,1.40
2022-10-06T13:02:20.559Z,1.20
2022-10-06T13:05:01.499Z,1.47
2022-10-06T13:07:33.151Z,1.42
2022-10-06T13:10:19.943Z,1.20
2022-10-06T13:12:49.833Z,1.22
2022-10-06T13:15:35.485Z,1.10
2022-10-06T13:18:15.574Z,1.37
2022-10-06T13:20:55.305Z,1.32
2022-10-06T13:23:32.612Z,1.47
2022-10-06T13:26:07.079Z,1.25
2022-10-06T13:28:48.593Z,1.70
2022-10-06T13:31:34.790Z,1.47
2022-10-06T13:34:18.132Z,1.10
2022-10-06T13:36:51.019Z,1.15
2022-10-06T13:39:22.996Z,1.10
2022-10-06T13:41:59.990Z,1.27
2022-10-06T13:44:42.228Z,1.30
2022-10-06T13:47:19.313Z,1.80
2022-10-06T13:49:55.492Z,1.17
2022-10-06T13:52:46.461Z,1.25
2022-10-06T13:55:23.597Z,1.40
2022-10-06T13:58:06.526Z,1.32
2022-10-06T14:01:00.722Z,1.30
2022-10-06T14:03:36.922Z,1.32
2022-10-06T14:06:18.067Z,1.10
2022-10-06T14:08:55.749Z,1.50
2022-10-06T14:11:27.551Z,1.50
2022-10-06T14:14:02.314Z,1.42
2022-10-06T14:16:30.401Z,1.60
2022-10-06T14:19:02.283Z,1.35
2022-10-06T14:21:45.111Z,1.50
2022-10-06T14:24:21.167Z,1.15
2022-10-06T14:26:50.318Z,1.90
2022-10-06T14:29:19.064Z,1.70
2022-10-06T14:31:47.097Z,1.87
2022-10-06T14:34:18.009Z,1.65
2022-10-06T14:36:54.485Z,1.55
2022-10-06T14:39:22.570Z,1.52
2022-10-06T14:41:50.538Z,1.90
2022-10-06T14:44:18.710Z,2.10
2022-10-06T14:46:48.486Z,2.12
2022-10-06T14:49:16.487Z,2.30
2022-10-06T14:51:45.357Z,2.58
2022-10-06T14:54:13.589Z,2.37
2022-10-06T14:56:41.961Z,2.67
2022-10-06T14:59:13.779Z,2.58
2022-10-06T15:01:41.680Z,2.20
2022-10-06T15:04:18.201Z,2.33
2022-10-06T15:07:05.319Z,2.65
2022-10-06T15:09:32.658Z,2.60
2022-10-06T15:12:00.446Z,2.77
2022-10-06T15:14:29.129Z,3.37
2022-10-06T15:17:00.823Z,4.42
2022-10-06T15:19:28.419Z,6.28
2022-10-06T15:21:56.532Z,5.35
2022-10-06T15:24:24.822Z,5.45
2022-10-06T15:27:11.071Z,5.78
2022-10-06T15:29:38.474Z,6.25
2022-10-06T15:32:05.962Z,6.50
2022-10-06T15:34:36.383Z,6.58
2022-10-06T15:37:03.975Z,6.75
2022-10-06T15:39:34.579Z,6.10
2022-10-06T15:42:02.449Z,5.10
2022-10-06T15:44:33.743Z,4.90
2022-10-06T15:47:01.811Z,5.80
2022-10-06T15:49:31.416Z,5.60
2022-10-06T15:52:03.584Z,5.97
2022-10-06T15:54:36.457Z,6.72
2022-10-06T15:57:07.983Z,6.25
2022-10-06T15:59:39.394Z,6.50
2022-10-06T16:02:13.824Z,7.67
2022-10-06T16:04:41.918Z,14.13
2022-10-06T16:07:13.823Z,36.65
2022-10-06T16:09:44.919Z,38.05
2022-10-06T16:12:17.219Z,37.00
2022-10-06T16:14:45.105Z,35.13
2022-10-06T16:17:13.336Z,36.48
2022-10-06T16:19:40.880Z,34.35
2022-10-06T16:22:13.045Z,33.78
2022-10-06T16:24:41.161Z,42.40
2022-10-06T16:27:14.383Z,37.13
2022-10-06T16:29:41.867Z,35.73
2022-10-06T16:32:10.236Z,39.65
2022-10-06T16:34:37.724Z,41.05
2022-10-06T16:37:05.647Z,30.97
2022-10-06T16:39:33.235Z,26.85
2022-10-06T16:42:00.537Z,27.58
2022-10-06T16:44:28.011Z,29.20
2022-10-06T16:46:55.447Z,27.67
2022-10-06T16:49:23.902Z,54.13
2022-10-06T16:51:51.652Z,74.27
2022-10-06T16:54:20.339Z,48.33
2022-10-06T16:56:54.259Z,33.48
2022-10-06T16:59:25.461Z,34.03
2022-10-06T17:01:53.245Z,27.93
2022-10-06T17:04:24.091Z,20.80
2022-10-06T17:06:55.193Z,21.12
2022-10-06T17:09:28.444Z,25.60
2022-10-06T17:14:28.083Z,27.95
2022-10-06T17:16:56.896Z,20.90
2022-10-06T17:19:28.742Z,24.18
2022-10-06T17:21:59.501Z,60.43
2022-10-06T17:24:28.811Z,46.83
2022-10-06T17:26:57.464Z,35.55
2022-10-06T17:29:25.884Z,30.08
2022-10-06T17:31:55.350Z,27.13
2022-10-06T17:34:26.455Z,27.70
2022-10-06T17:36:52.458Z,24.77
2022-10-06T17:39:22.412Z,22.73
2022-10-06T17:41:52.100Z,20.85
2022-10-06T17:44:24.876Z,19.65
2022-10-06T17:46:56.420Z,20.88
2022-10-06T17:49:25.145Z,20.23
2022-10-06T17:51:54.933Z,22.17
2022-10-06T17:54:26.221Z,21.68
2022-10-06T17:56:57.130Z,24.12
2022-10-06T17:59:31.179Z,22.60
2022-10-06T18:02:02.076Z,24.57
2022-10-06T18:04:31.396Z,24.02
2022-10-06T18:06:59.873Z,23.65
2022-10-06T18:09:27.530Z,22.77
2022-10-06T18:11:55.965Z,24.60
2022-10-06T18:14:27.899Z,24.47
2022-10-06T18:16:59.731Z,23.80
2022-10-06T18:19:33.158Z,25.00
